createdAt,value
2019-02-18T00:02:00.990Z,4.00
2019-02-18T00:04:49.676Z,3.80
2019-02-18T00:07:38.116Z,3.70
2019-02-18T00:10:19.244Z,3.70
2019-02-18T00:16:08.727Z,3.70
2019-02-18T00:18:50.075Z,3.80
2019-02-18T00:21:31.571Z,3.70
2019-02-18T00:24:32.279Z,3.70
2019-02-18T00:27:13.632Z,4.00
2019-02-18T00:29:54.971Z,4.00
2019-02-18T00:35:44.264Z,3.80
2019-02-18T00:41:34.054Z,3.70
2019-02-18T00:47:23.383Z,3.60
2019-02-18T00:50:04.313Z,3.70
2019-02-18T00:52:45.353Z,3.70
2019-02-18T00:55:26.682Z,3.60
2019-02-18T00:58:09.064Z,3.60
2019-02-18T01:00:50.212Z,3.60
2019-02-18T01:06:36.894Z,3.50
2019-02-18T01:09:18.428Z,3.40
2019-02-18T01:12:18.883Z,3.40
2019-02-18T01:14:59.889Z,3.40
2019-02-18T01:17:41.334Z,3.20
2019-02-18T01:20:22.475Z,3.20
2019-02-18T01:23:04.314Z,3.20
2019-02-18T01:25:45.568Z,3.30
2019-02-18T01:28:26.708Z,3.40
2019-02-18T01:31:07.623Z,3.30
2019-02-18T01:36:57.389Z,3.20
2019-02-18T01:39:38.021Z,3.30
2019-02-18T01:42:18.676Z,3.40
2019-02-18T01:45:00.336Z,3.30
2019-02-18T01:47:41.661Z,3.30
2019-02-18T01:50:23.220Z,3.40
2019-02-18T01:53:05.017Z,3.40
2019-02-18T01:55:46.748Z,3.40
2019-02-18T01:58:28.295Z,3.40
2019-02-18T02:01:08.883Z,3.30
2019-02-18T02:03:50.475Z,3.10
2019-02-18T02:06:31.803Z,3.20
2019-02-18T02:09:15.164Z,3.10
2019-02-18T02:11:56.291Z,3.20
2019-02-18T02:14:37.028Z,3.10
2019-02-18T02:20:37.606Z,3.00
2019-02-18T02:23:19.084Z,3.00
2019-02-18T02:26:00.912Z,3.00
2019-02-18T02:28:42.072Z,2.90
2019-02-18T02:34:42.535Z,3.10
2019-02-18T02:37:23.758Z,2.90
2019-02-18T02:43:31.968Z,2.80
2019-02-18T02:46:11.514Z,2.80
2019-02-18T02:48:59.958Z,2.80
2019-02-18T02:55:32.151Z,2.60
2019-02-18T02:58:20.572Z,2.60
2019-02-18T03:01:09.021Z,2.60
2019-02-18T03:03:57.428Z,2.60
2019-02-18T03:06:45.876Z,2.50
2019-02-18T03:09:26.918Z,2.50
2019-02-18T03:12:07.485Z,2.50
2019-02-18T03:14:48.751Z,2.40
2019-02-18T03:17:30.019Z,2.30
2019-02-18T03:20:11.387Z,2.30
2019-02-18T03:22:52.890Z,2.30
2019-02-18T03:25:34.237Z,2.20
2019-02-18T03:28:15.728Z,2.20
2019-02-18T03:30:56.385Z,2.20
2019-02-18T03:33:37.842Z,2.20
2019-02-18T03:36:19.286Z,2.20
2019-02-18T03:39:00.796Z,2.40
2019-02-18T03:41:42.103Z,2.30
2019-02-18T03:44:23.555Z,2.30
2019-02-18T03:47:04.356Z,2.30
2019-02-18T03:49:45.226Z,2.20
2019-02-18T03:55:34.683Z,1.90
2019-02-18T03:58:15.582Z,1.80
2019-02-18T04:00:56.718Z,1.70
2019-02-18T04:03:37.445Z,1.70
2019-02-18T04:06:18.522Z,1.60
2019-02-18T04:08:59.836Z,1.60
2019-02-18T04:14:46.399Z,1.80
2019-02-18T04:17:27.137Z,2.00
2019-02-18T04:20:08.616Z,2.10
2019-02-18T04:22:49.832Z,2.10
2019-02-18T04:25:31.381Z,2.10
2019-02-18T04:28:12.290Z,2.00
2019-02-18T04:30:53.739Z,2.00
2019-02-18T04:33:35.317Z,1.90
2019-02-18T04:36:16.745Z,1.80
2019-02-18T04:38:57.504Z,1.80
2019-02-18T04:41:38.774Z,1.70
2019-02-18T04:44:19.677Z,1.70
2019-02-18T04:47:01.258Z,1.60
2019-02-18T04:49:42.732Z,1.70
2019-02-18T04:52:23.436Z,1.70
2019-02-18T04:55:04.245Z,1.80
2019-02-18T04:57:44.965Z,1.90
2019-02-18T05:00:26.496Z,2.00
2019-02-18T05:03:07.261Z,2.10
2019-02-18T05:05:48.035Z,2.20
2019-02-18T05:08:28.703Z,2.20
2019-02-18T05:11:09.805Z,2.30
2019-02-18T05:13:51.416Z,2.30
2019-02-18T05:16:32.618Z,2.30
2019-02-18T05:19:13.988Z,2.30
2019-02-18T05:21:55.627Z,2.30
2019-02-18T05:24:37.175Z,2.20
2019-02-18T05:27:18.504Z,2.20
2019-02-18T05:29:59.215Z,2.20
2019-02-18T05:32:41.077Z,2.20
2019-02-18T05:35:22.354Z,2.20
2019-02-18T05:38:03.015Z,2.20
2019-02-18T05:40:43.699Z,2.10
2019-02-18T05:43:24.381Z,2.10
2019-02-18T05:46:05.176Z,2.10
2019-02-18T05:52:05.280Z,2.00
2019-02-18T05:54:47.272Z,2.00
2019-02-18T05:57:28.529Z,1.90
2019-02-18T06:00:09.819Z,1.90
2019-02-18T06:02:51.507Z,1.80
2019-02-18T06:05:32.846Z,1.80
2019-02-18T06:11:19.571Z,1.70
2019-02-18T06:14:00.848Z,1.80
2019-02-18T06:16:42.401Z,1.80
2019-02-18T06:22:43.046Z,1.80
2019-02-18T06:25:24.546Z,1.80
2019-02-18T06:28:05.130Z,1.80
2019-02-18T06:30:45.706Z,1.70
2019-02-18T06:33:28.198Z,1.70
2019-02-18T06:36:08.892Z,1.80
2019-02-18T06:38:49.642Z,1.70
2019-02-18T06:41:30.407Z,1.90
2019-02-18T06:44:11.997Z,1.80
2019-02-18T06:46:58.168Z,1.70
2019-02-18T06:53:01.553Z,1.90
2019-02-18T06:55:42.904Z,1.90
2019-02-18T07:01:47.124Z,1.90
2019-02-18T07:04:47.264Z,1.90
2019-02-18T07:07:47.698Z,2.10
2019-02-18T07:10:35.172Z,2.40
2019-02-18T07:13:15.764Z,2.40
2019-02-18T07:15:56.462Z,2.50
2019-02-18T07:21:43.147Z,2.60
2019-02-18T07:24:24.687Z,2.80
2019-02-18T07:27:04.283Z,2.80
2019-02-18T07:29:52.726Z,2.90
2019-02-18T07:33:17.900Z,2.90
2019-02-18T07:36:42.972Z,3.00
2019-02-18T07:39:31.427Z,3.10
2019-02-18T07:42:19.861Z,3.20
2019-02-18T07:45:08.781Z,3.40
2019-02-18T07:47:57.223Z,3.40
2019-02-18T07:50:45.652Z,3.50
2019-02-18T07:53:34.100Z,3.60
2019-02-18T07:56:22.534Z,3.60
2019-02-18T07:59:10.971Z,3.60
2019-02-18T08:01:59.398Z,3.70
2019-02-18T08:04:47.150Z,3.80
2019-02-18T08:07:35.573Z,3.80
2019-02-18T08:10:16.422Z,3.90
2019-02-18T08:12:57.753Z,4.00
2019-02-18T08:15:38.332Z,4.10
2019-02-18T08:18:19.010Z,4.20
2019-02-18T08:24:08.239Z,4.40
2019-02-18T08:26:49.367Z,4.50
2019-02-18T08:29:48.959Z,4.60
2019-02-18T08:32:30.679Z,4.60
2019-02-18T08:35:10.765Z,4.80
2019-02-18T08:37:59.182Z,4.80
2019-02-18T08:40:47.622Z,5.00
2019-02-18T08:43:36.044Z,5.10
2019-02-18T08:46:24.892Z,5.20
2019-02-18T08:49:13.339Z,5.30
2019-02-18T08:52:01.764Z,5.30
2019-02-18T08:54:56.674Z,5.40
2019-02-18T09:00:29.092Z,5.60
2019-02-18T09:03:17.508Z,5.70
2019-02-18T09:06:05.977Z,5.90
2019-02-18T09:15:14.392Z,6.30
2019-02-18T09:17:56.082Z,6.40
2019-02-18T09:20:56.545Z,6.50
2019-02-18T09:23:56.984Z,6.60
2019-02-18T09:26:37.643Z,6.80
2019-02-18T09:29:18.966Z,7.00
2019-02-18T09:35:05.076Z,7.20
2019-02-18T09:37:46.675Z,7.30
2019-02-18T09:40:27.340Z,7.50
2019-02-18T09:43:08.026Z,7.60
2019-02-18T09:45:49.564Z,7.70
2019-02-18T09:48:30.220Z,7.80
2019-02-18T09:51:10.925Z,7.90
2019-02-18T09:53:51.807Z,8.00
2019-02-18T09:59:37.768Z,8.20
2019-02-18T10:02:18.712Z,8.20
2019-02-18T10:05:00.019Z,8.40
2019-02-18T10:07:40.736Z,8.60
2019-02-18T10:10:20.254Z,8.70
2019-02-18T10:13:09.021Z,8.80
2019-02-18T10:15:57.748Z,9.00
2019-02-18T10:22:29.091Z,9.10
2019-02-18T10:25:17.631Z,9.30
2019-02-18T10:28:07.171Z,9.50
2019-02-18T10:30:55.644Z,9.60
2019-02-18T10:34:01.526Z,9.80
2019-02-18T10:36:31.029Z,9.90
2019-02-18T10:39:37.308Z,10.00
2019-02-18T10:42:24.538Z,10.10
2019-02-18T10:45:13.694Z,10.20
2019-02-18T10:48:02.966Z,10.30
2019-02-18T10:50:52.093Z,10.50
2019-02-18T10:53:40.877Z,10.60
2019-02-18T10:56:30.016Z,10.60
2019-02-18T10:59:19.031Z,10.70
2019-02-18T11:05:39.248Z,11.00
2019-02-18T11:08:27.753Z,11.10
2019-02-18T11:11:16.702Z,11.30
2019-02-18T11:13:51.980Z,11.50
2019-02-18T11:19:38.682Z,11.70
2019-02-18T11:22:08.719Z,11.90
2019-02-18T11:27:46.534Z,12.00
2019-02-18T11:30:34.999Z,12.10
2019-02-18T11:33:22.907Z,12.20
2019-02-18T11:39:45.027Z,12.30
2019-02-18T11:42:33.491Z,12.50
2019-02-18T11:45:21.914Z,12.50
2019-02-18T11:47:51.289Z,12.60
2019-02-18T11:50:40.031Z,12.70
2019-02-18T11:53:30.156Z,12.80
2019-02-18T11:56:18.590Z,12.80
2019-02-18T11:59:07.832Z,13.00
2019-02-18T12:01:56.559Z,13.00
2019-02-18T12:04:45.297Z,13.10
2019-02-18T12:07:33.774Z,13.20
2019-02-18T12:12:57.316Z,13.40
2019-02-18T12:15:38.859Z,13.40
2019-02-18T12:18:19.798Z,13.40
2019-02-18T12:21:01.046Z,13.30
2019-02-18T12:23:41.673Z,13.30
2019-02-18T12:26:22.607Z,13.30
2019-02-18T12:29:04.489Z,13.30
2019-02-18T12:32:04.045Z,13.50
2019-02-18T12:34:46.008Z,13.50
2019-02-18T12:37:15.395Z,13.60
2019-02-18T12:40:03.980Z,13.70
2019-02-18T12:42:54.132Z,13.70
2019-02-18T12:45:23.492Z,13.70
2019-02-18T12:48:11.964Z,13.80
2019-02-18T12:51:00.441Z,13.80
2019-02-18T12:53:49.261Z,13.90
2019-02-18T12:56:37.717Z,13.90
2019-02-18T12:59:28.685Z,13.90
2019-02-18T13:02:16.283Z,13.90
2019-02-18T13:08:04.604Z,14.10
2019-02-18T13:10:46.174Z,14.20
2019-02-18T13:13:15.643Z,14.20
2019-02-18T13:16:04.195Z,14.10
2019-02-18T13:19:01.119Z,14.10
2019-02-18T13:21:49.877Z,14.20
2019-02-18T13:24:40.011Z,14.00
2019-02-18T13:27:28.449Z,14.10
2019-02-18T13:30:34.928Z,14.20
2019-02-18T13:33:04.310Z,14.30
2019-02-18T13:35:53.367Z,14.30
2019-02-18T13:38:42.034Z,14.40
2019-02-18T13:44:18.128Z,14.40
2019-02-18T13:47:07.060Z,14.40
2019-02-18T13:49:57.566Z,14.40
2019-02-18T13:55:37.053Z,14.40
2019-02-18T13:58:26.149Z,14.40
2019-02-18T14:01:15.078Z,14.40
2019-02-18T14:04:03.440Z,14.40
2019-02-18T14:06:52.279Z,14.50
2019-02-18T14:09:33.670Z,14.40
2019-02-18T14:12:16.401Z,14.40
2019-02-18T14:14:45.922Z,14.60
2019-02-18T14:17:35.350Z,14.60
2019-02-18T14:20:23.845Z,14.40
2019-02-18T14:23:12.317Z,14.50
2019-02-18T14:26:00.818Z,14.50
2019-02-18T14:28:49.615Z,14.50
2019-02-18T14:31:38.044Z,14.60
2019-02-18T14:34:27.146Z,14.50
2019-02-18T14:37:15.523Z,14.40
2019-02-18T14:40:03.235Z,14.40
2019-02-18T14:42:33.171Z,14.40
2019-02-18T14:45:21.631Z,14.40
2019-02-18T14:47:51.248Z,14.50
2019-02-18T14:50:39.820Z,14.50
2019-02-18T14:56:59.102Z,14.30
2019-02-18T14:59:47.593Z,14.00
2019-02-18T15:06:20.595Z,13.80
2019-02-18T15:08:52.073Z,13.70
2019-02-18T15:11:41.042Z,13.50
2019-02-18T15:14:29.882Z,13.70
2019-02-18T15:17:18.334Z,13.80
2019-02-18T15:20:06.822Z,13.70
2019-02-18T15:22:56.867Z,13.60
2019-02-18T15:25:45.663Z,13.70
2019-02-18T15:28:34.117Z,13.70
2019-02-18T15:31:22.546Z,13.60
2019-02-18T15:36:58.973Z,14.00
2019-02-18T15:39:47.440Z,14.10
2019-02-18T15:45:05.811Z,13.60
2019-02-18T15:48:01.514Z,13.50
2019-02-18T15:50:25.424Z,13.30
2019-02-18T15:56:58.013Z,13.10
2019-02-18T15:59:46.647Z,13.00
2019-02-18T16:02:35.100Z,12.90
2019-02-18T16:05:24.406Z,12.70
2019-02-18T16:08:13.182Z,12.50
2019-02-18T16:10:53.846Z,12.60
2019-02-18T16:13:34.766Z,12.70
2019-02-18T16:16:15.718Z,12.70
2019-02-18T16:18:57.286Z,12.70
2019-02-18T16:21:38.222Z,12.60
2019-02-18T16:24:20.094Z,12.70
2019-02-18T16:27:01.683Z,12.40
2019-02-18T16:29:42.967Z,12.20
2019-02-18T16:32:24.625Z,12.60
2019-02-18T16:35:05.329Z,12.70
2019-02-18T16:37:46.915Z,12.60
2019-02-18T16:40:27.782Z,12.60
2019-02-18T16:43:09.016Z,12.40
2019-02-18T16:45:50.009Z,12.00
2019-02-18T16:48:31.524Z,11.80
2019-02-18T16:54:17.265Z,11.60
2019-02-18T16:56:59.226Z,11.40
2019-02-18T16:59:40.819Z,11.10
2019-02-18T17:02:21.578Z,11.40
2019-02-18T17:05:03.453Z,11.70
2019-02-18T17:07:44.840Z,11.80
2019-02-18T17:10:26.315Z,11.70
2019-02-18T17:13:08.555Z,11.70
2019-02-18T17:15:38.212Z,11.70
2019-02-18T17:18:26.666Z,11.30
2019-02-18T17:21:16.778Z,10.90
2019-02-18T17:24:05.561Z,10.40
2019-02-18T17:26:55.691Z,10.10
2019-02-18T17:29:44.145Z,10.00
2019-02-18T17:32:32.943Z,9.70
2019-02-18T17:35:21.582Z,9.60
2019-02-18T17:38:09.996Z,9.70
2019-02-18T17:40:58.482Z,10.00
2019-02-18T17:43:46.854Z,10.00
2019-02-18T17:46:35.578Z,9.80
2019-02-18T17:49:24.217Z,9.80
2019-02-18T17:52:14.356Z,9.50
2019-02-18T17:57:51.632Z,9.00
2019-02-18T18:03:28.874Z,8.80
2019-02-18T18:06:17.315Z,8.80
2019-02-18T18:08:58.559Z,8.90
2019-02-18T18:11:39.547Z,9.00
2019-02-18T18:14:20.256Z,9.20
2019-02-18T18:17:01.706Z,9.20
2019-02-18T18:19:43.246Z,9.10
2019-02-18T18:25:29.770Z,8.90
2019-02-18T18:28:11.276Z,8.60
2019-02-18T18:30:52.231Z,8.40
2019-02-18T18:33:33.613Z,8.20
2019-02-18T18:36:15.237Z,8.20
2019-02-18T18:38:56.596Z,8.10
2019-02-18T18:41:38.554Z,8.20
2019-02-18T18:47:24.778Z,8.10
2019-02-18T18:50:25.062Z,8.20
2019-02-18T18:53:05.967Z,8.10
2019-02-18T18:56:06.478Z,8.20
2019-02-18T18:58:47.892Z,8.10
2019-02-18T19:01:28.492Z,7.90
2019-02-18T19:04:10.274Z,7.60
2019-02-18T19:06:51.904Z,7.40
2019-02-18T19:12:41.852Z,7.40
2019-02-18T19:18:42.504Z,7.30
2019-02-18T19:21:23.314Z,7.20
2019-02-18T19:24:03.935Z,7.20
2019-02-18T19:26:44.612Z,7.10
2019-02-18T19:35:36.238Z,6.80
2019-02-18T19:41:24.517Z,6.70
2019-02-18T19:44:05.398Z,6.70
2019-02-18T19:46:47.435Z,6.70
2019-02-18T19:49:28.179Z,6.60
2019-02-18T19:52:08.891Z,6.60
2019-02-18T19:54:50.074Z,6.80
2019-02-18T19:57:31.525Z,6.80
2019-02-18T20:00:12.589Z,6.70
2019-02-18T20:02:42.017Z,6.70
2019-02-18T20:05:30.718Z,6.80
2019-02-18T20:08:19.475Z,6.80
2019-02-18T20:11:07.904Z,6.60
2019-02-18T20:13:37.209Z,6.60
2019-02-18T20:16:25.657Z,6.70
2019-02-18T20:19:14.432Z,6.70
2019-02-18T20:22:03.491Z,6.70
2019-02-18T20:24:51.970Z,6.70
2019-02-18T20:27:40.696Z,6.80
2019-02-18T20:30:29.074Z,6.80
2019-02-18T20:32:58.465Z,6.90
2019-02-18T20:36:22.184Z,6.70
2019-02-18T20:39:10.930Z,6.70
2019-02-18T20:41:59.638Z,6.50
2019-02-18T20:44:48.102Z,6.40
2019-02-18T20:47:38.195Z,6.20
2019-02-18T20:50:26.662Z,6.10
2019-02-18T20:53:15.092Z,5.90
2019-02-18T20:56:03.951Z,5.80
2019-02-18T20:58:52.323Z,5.80
2019-02-18T21:01:40.702Z,5.80
2019-02-18T21:04:29.499Z,6.10
2019-02-18T21:07:18.255Z,6.00
2019-02-18T21:12:55.966Z,5.90
2019-02-18T21:15:44.348Z,5.90
2019-02-18T21:18:34.765Z,5.90
2019-02-18T21:21:23.256Z,5.70
2019-02-18T21:24:12.128Z,5.70
2019-02-18T21:27:00.599Z,5.70
2019-02-18T21:29:49.055Z,5.60
2019-02-18T21:35:07.222Z,5.20
2019-02-18T21:37:56.459Z,5.10
2019-02-18T21:40:45.200Z,5.00
2019-02-18T21:43:33.859Z,5.20
2019-02-18T21:46:22.361Z,5.10
2019-02-18T21:49:10.810Z,5.20
2019-02-18T21:51:59.367Z,5.20
2019-02-18T21:54:47.864Z,5.10
2019-02-18T21:57:38.222Z,4.90
2019-02-18T22:00:26.673Z,4.90
2019-02-18T22:03:17.755Z,4.80
2019-02-18T22:06:07.150Z,4.70
2019-02-18T22:08:55.605Z,4.60
2019-02-18T22:11:44.344Z,4.60
2019-02-18T22:14:35.263Z,4.60
2019-02-18T22:17:04.223Z,4.60
2019-02-18T22:19:52.701Z,4.80
2019-02-18T22:22:21.982Z,4.90
2019-02-18T22:25:12.459Z,4.80
2019-02-18T22:28:00.899Z,4.80
2019-02-18T22:30:49.274Z,4.60
2019-02-18T22:33:37.714Z,4.70
2019-02-18T22:36:26.179Z,4.80
2019-02-18T22:42:37.951Z,4.80
2019-02-18T22:45:26.333Z,4.50
2019-02-18T22:48:16.416Z,4.50
2019-02-18T22:51:04.768Z,4.50
2019-02-18T22:53:53.514Z,4.60
2019-02-18T22:56:59.427Z,4.60
2019-02-18T22:59:49.503Z,4.60
2019-02-18T23:02:37.974Z,4.40
2019-02-18T23:05:26.886Z,4.30
2019-02-18T23:08:15.388Z,4.30
2019-02-18T23:14:00.449Z,4.30
2019-02-18T23:19:46.303Z,4.10
2019-02-18T23:22:16.030Z,4.40
2019-02-18T23:25:04.483Z,4.40
2019-02-18T23:27:51.794Z,4.40
2019-02-18T23:30:40.512Z,4.40
2019-02-18T23:33:29.260Z,4.40
2019-02-18T23:36:17.747Z,4.50
2019-02-18T23:39:26.594Z,4.60
2019-02-18T23:42:15.526Z,4.50
2019-02-18T23:47:53.038Z,4.40
2019-02-18T23:50:41.828Z,4.40
2019-02-18T23:53:30.290Z,4.40
2019-02-18T23:56:18.746Z,4.20
2019-02-18T23:59:07.122Z,4.20
